Spoiler — WDJ6427 — position and weather

sailwx.info

Track history (hours):
 
Tides and Currents Weather Stations Pressure Air Temp Water Temp Dewpoint Dewpoint Depression Visibility Wind Speed Wind Dir Waves Ship Positions

Spoiler

Owner: MT Vessel 1 LLC, LEAGUE CITY, TX. More information available from US FCC via Universal Licensing System and Coast Guard Vessel Documentation Center.

Last reported at 2018-Apr-12 18:41 UTC. Time now 2018-Apr-23 07:35 UTC.
Position N 29°44' W 095°09'.
Warning: this ship's position is 10 days out of date.

Length 8 m; draft 2 m.

Type: Tug. MMSI: 367797660.

Date/timePositionNaut miles runAvg speedWind from/ knotsBaromVisibWave heightAir tempDewpointWater temp
2018-Apr-12 18:41N 29°44' W 095°09'2 4.2
2018-Apr-12 18:16N 29°44' W 095°07'3 3.0
2018-Apr-12 17:24N 29°45' W 095°04'3 4.2
2018-Apr-12 16:43N 29°43' W 095°01'1 4.5
2018-Apr-12 16:30N 29°42' W 095°01'2 4.4
2018-Apr-12 16:00N 29°41' W 094°59'2 4.6
2018-Apr-12 15:30N 29°39' W 094°58'2 4.8
2018-Apr-12 15:00N 29°37' W 094°57'2 4.7
2018-Apr-12 14:30N 29°35' W 094°56'2 4.7
2018-Apr-12 14:00N 29°32' W 094°56'2 4.4
2018-Apr-12 13:29N 29°30' W 094°55'2 3.5
2018-Apr-12 13:00N 29°29' W 094°55'2 3.4
2018-Apr-12 12:31N 29°28' W 094°57'  
Track history (hours):
 
Tides and Currents Weather Stations Pressure Air Temp Water Temp Dewpoint Dewpoint Depression Visibility Wind Speed Wind Dir Waves Ship Positions

Spoiler

Owner: MT Vessel 1 LLC, LEAGUE CITY, TX. More information available from US FCC via Universal Licensing System and Coast Guard Vessel Documentation Center.

Last reported at 2018-Apr-12 18:41 UTC. Time now 2018-Apr-23 07:35 UTC.
Position N 29°44' W 095°09'.
Warning: this ship's position is 10 days out of date.

Length 8 m; draft 2 m.

Type: Tug. MMSI: 367797660.

Date/timePositionNaut miles runAvg speedWind from/ knotsBaromVisibWave heightAir tempDewpointWater temp
2018-Apr-12 18:41N 29°44' W 095°09'2 4.2
2018-Apr-12 18:16N 29°44' W 095°07'3 3.0
2018-Apr-12 17:24N 29°45' W 095°04'3 4.2
2018-Apr-12 16:43N 29°43' W 095°01'1 4.5
2018-Apr-12 16:30N 29°42' W 095°01'2 4.4
2018-Apr-12 16:00N 29°41' W 094°59'2 4.6
2018-Apr-12 15:30N 29°39' W 094°58'2 4.8
2018-Apr-12 15:00N 29°37' W 094°57'2 4.7
2018-Apr-12 14:30N 29°35' W 094°56'2 4.7
2018-Apr-12 14:00N 29°32' W 094°56'2 4.4
2018-Apr-12 13:29N 29°30' W 094°55'2 3.5
2018-Apr-12 13:00N 29°29' W 094°55'2 3.4
2018-Apr-12 12:31N 29°28' W 094°57'  

Dump ship's entire track history